Main page
METAR-TAF:

METAR-TAF

Airports :

Jacarepaguá Airport

Rio de Janeiro, Rio de Janeiro, Brazil

latitude: 22-59S, longitude: 043-22W, elevation: 3 m

Current weather observation

The report was made 9 hours and 7 minutes ago, at 18:00 UTC
Wind 3 kt from the South/Southwest
Temperature 27°C
Humidity 74%
Pressure 1015 hPa
Visibility: 8000 m

METAR: SBJR 231800Z 21003KT 8000 NSC 27/22 Q1015

Time: 00:07 (03:07 UTC)


TAF: missing

Weather observations and forecasts of more than 4000 airports (METAR and TAF reports).

The available stations are represented by yellow and red dots on the map.

Hover mouse over dot to see the name of the station.

Then click to see weather observations and forecasts.

To change the map : click on the green buttons with a black cross to zoom in, on the green button with a dash to zoom out, or on the green arrows for adjacent maps.


METAR-TAF: